createdAt,value
2023-05-22T00:00:35.672Z,3.72
2023-05-22T00:03:37.635Z,3.42
2023-05-22T00:06:42.686Z,3.53
2023-05-22T00:09:46.523Z,3.90
2023-05-22T00:12:48.621Z,3.92
2023-05-22T00:15:50.634Z,4.40
2023-05-22T00:18:52.555Z,3.90
2023-05-22T00:21:54.497Z,3.95
2023-05-22T00:24:58.451Z,4.20
2023-05-22T00:28:00.229Z,3.95
2023-05-22T00:31:01.997Z,3.83
2023-05-22T00:34:04.526Z,3.60
2023-05-22T00:37:06.354Z,4.03
2023-05-22T00:40:12.041Z,4.03
2023-05-22T00:43:17.229Z,4.13
2023-05-22T00:46:21.774Z,3.92
2023-05-22T00:49:23.585Z,3.60
2023-05-22T00:52:25.704Z,3.80
2023-05-22T00:55:29.182Z,3.70
2023-05-22T00:58:31.484Z,4.20
2023-05-22T01:01:36.940Z,3.88
2023-05-22T01:04:38.940Z,3.78
2023-05-22T01:07:41.226Z,3.67
2023-05-22T01:10:45.118Z,3.92
2023-05-22T01:13:57.380Z,4.07
2023-05-22T01:17:09.361Z,3.50
2023-05-22T01:20:19.084Z,3.78
2023-05-22T01:23:57.536Z,3.40
2023-05-22T01:27:26.027Z,3.72
2023-05-22T01:33:51.591Z,3.38
2023-05-22T01:36:54.664Z,3.83
2023-05-22T01:39:58.434Z,3.92
2023-05-22T01:43:01.192Z,3.90
2023-05-22T01:46:05.800Z,3.95
2023-05-22T01:49:09.062Z,3.83
2023-05-22T01:52:15.560Z,3.80
2023-05-22T01:55:27.429Z,3.72
2023-05-22T01:58:34.822Z,4.18
2023-05-22T02:01:39.259Z,4.72
2023-05-22T02:04:45.238Z,3.83
2023-05-22T02:07:53.185Z,3.78
2023-05-22T02:10:56.160Z,4.38
2023-05-22T02:13:58.328Z,3.90
2023-05-22T02:17:03.444Z,4.30
2023-05-22T02:20:07.532Z,4.03
2023-05-22T02:23:14.426Z,4.10
2023-05-22T02:26:16.123Z,4.10
2023-05-22T02:29:18.626Z,3.90
2023-05-22T02:32:22.052Z,4.32
2023-05-22T02:35:25.145Z,4.30
2023-05-22T02:38:28.101Z,4.13
2023-05-22T02:41:30.321Z,4.00
2023-05-22T02:44:32.780Z,4.32
2023-05-22T02:47:35.988Z,4.10
2023-05-22T02:50:37.954Z,3.97
2023-05-22T02:53:41.184Z,4.18
2023-05-22T02:56:43.402Z,3.90
2023-05-22T02:59:45.916Z,3.88
2023-05-22T03:02:49.996Z,3.45
2023-05-22T03:05:54.391Z,4.18
2023-05-22T03:08:56.364Z,3.83
2023-05-22T03:11:58.759Z,3.58
2023-05-22T03:15:01.094Z,4.07
2023-05-22T03:18:08.937Z,4.40
2023-05-22T03:21:11.006Z,3.60
2023-05-22T03:24:13.113Z,3.67
2023-05-22T03:27:17.003Z,4.25
2023-05-22T03:30:18.853Z,3.55
2023-05-22T03:33:32.560Z,3.90
2023-05-22T03:36:34.865Z,4.38
2023-05-22T03:39:36.885Z,3.85
2023-05-22T03:42:49.488Z,4.00
2023-05-22T03:45:52.867Z,4.03
2023-05-22T03:48:56.244Z,4.40
2023-05-22T03:51:59.626Z,4.30
2023-05-22T03:55:01.837Z,4.32
2023-05-22T03:58:03.673Z,4.55
2023-05-22T04:01:05.761Z,4.32
2023-05-22T04:04:09.571Z,4.32
2023-05-22T04:07:13.441Z,4.10
2023-05-22T04:10:15.692Z,4.80
2023-05-22T04:13:18.960Z,4.35
2023-05-22T04:16:21.728Z,4.43
2023-05-22T04:19:24.973Z,6.25
2023-05-22T04:22:27.497Z,5.78
2023-05-22T04:25:30.096Z,5.85
2023-05-22T04:28:32.625Z,5.60
2023-05-22T04:31:34.806Z,5.28
2023-05-22T04:34:42.200Z,5.25
2023-05-22T04:37:45.572Z,5.00
2023-05-22T04:40:47.820Z,6.10
2023-05-22T04:43:49.773Z,4.60
2023-05-22T04:46:53.588Z,4.63
2023-05-22T04:49:57.181Z,5.13
2023-05-22T04:53:04.472Z,4.90
2023-05-22T04:56:07.269Z,5.32
2023-05-22T04:59:10.274Z,5.00
2023-05-22T05:02:13.834Z,4.63
2023-05-22T05:05:16.960Z,4.82
2023-05-22T05:08:18.909Z,6.47
2023-05-22T05:11:21.675Z,4.00
2023-05-22T05:14:23.723Z,4.38
2023-05-22T05:17:25.456Z,4.50
2023-05-22T05:20:30.498Z,5.20
2023-05-22T05:23:32.296Z,3.70
2023-05-22T05:26:34.285Z,4.32
2023-05-22T05:29:36.962Z,4.30
2023-05-22T05:32:45.788Z,4.45
2023-05-22T05:36:00.856Z,4.07
2023-05-22T05:39:03.718Z,4.38
2023-05-22T05:42:08.890Z,4.35
2023-05-22T05:45:11.858Z,3.65
2023-05-22T05:48:13.862Z,4.72
2023-05-22T05:51:21.525Z,4.28
2023-05-22T05:57:30.267Z,3.88
2023-05-22T06:00:32.619Z,4.32
2023-05-22T06:03:35.382Z,4.30
2023-05-22T06:06:51.927Z,5.10
2023-05-22T06:09:53.750Z,4.78
2023-05-22T06:13:02.706Z,4.65
2023-05-22T06:16:06.764Z,4.45
2023-05-22T06:19:09.638Z,5.30
2023-05-22T06:22:13.120Z,4.53
2023-05-22T06:25:17.756Z,5.50
2023-05-22T06:28:19.842Z,5.95
2023-05-22T06:31:22.764Z,6.20
2023-05-22T06:34:25.904Z,6.03
2023-05-22T06:37:35.807Z,5.45
2023-05-22T06:40:38.201Z,5.43
2023-05-22T06:43:55.936Z,6.00
2023-05-22T06:47:03.584Z,6.18
2023-05-22T06:50:07.292Z,5.97
2023-05-22T06:53:11.389Z,6.20
2023-05-22T06:56:13.148Z,6.07
2023-05-22T06:59:26.313Z,6.07
2023-05-22T07:02:57.442Z,6.32
2023-05-22T07:06:06.084Z,6.65
2023-05-22T07:09:11.316Z,5.88
2023-05-22T07:12:13.637Z,6.70
2023-05-22T07:15:15.632Z,5.93
2023-05-22T07:18:23.695Z,6.13
2023-05-22T07:21:25.694Z,6.90
2023-05-22T07:24:30.157Z,7.00
2023-05-22T07:27:32.163Z,7.30
2023-05-22T07:30:36.922Z,6.72
2023-05-22T07:33:40.577Z,7.00
2023-05-22T07:36:42.930Z,6.65
2023-05-22T07:39:46.873Z,7.15
2023-05-22T07:42:49.597Z,6.70
2023-05-22T07:45:51.525Z,6.60
2023-05-22T07:48:57.923Z,8.02
2023-05-22T07:51:59.903Z,7.47
2023-05-22T07:55:03.615Z,7.05
2023-05-22T07:58:11.075Z,7.45
2023-05-22T08:01:17.329Z,6.20
2023-05-22T08:04:19.242Z,6.93
2023-05-22T08:07:21.189Z,6.60
2023-05-22T08:10:29.924Z,6.95
2023-05-22T08:13:38.807Z,7.22
2023-05-22T08:16:41.260Z,8.98
2023-05-22T08:19:43.232Z,7.78
2023-05-22T08:22:45.006Z,8.23
2023-05-22T08:25:48.439Z,7.65
2023-05-22T08:28:50.968Z,7.63
2023-05-22T08:31:53.918Z,7.50
2023-05-22T08:34:55.803Z,7.28
2023-05-22T08:37:57.626Z,7.70
2023-05-22T08:41:01.268Z,7.65
2023-05-22T08:44:03.957Z,7.07
2023-05-22T08:47:11.154Z,7.63
2023-05-22T08:50:13.527Z,7.35
2023-05-22T08:53:17.960Z,7.43
2023-05-22T08:56:22.232Z,7.25
2023-05-22T08:59:24.340Z,7.88
2023-05-22T09:02:28.567Z,7.53
2023-05-22T09:05:31.385Z,8.30
2023-05-22T09:08:33.214Z,7.47
2023-05-22T09:11:36.710Z,7.68
2023-05-22T09:14:39.403Z,7.72
2023-05-22T09:17:41.444Z,7.45
2023-05-22T09:20:43.600Z,7.82
2023-05-22T09:23:49.469Z,7.53
2023-05-22T09:26:53.053Z,6.93
2023-05-22T09:29:56.782Z,7.50
2023-05-22T09:32:58.732Z,7.30
2023-05-22T09:36:01.559Z,7.20
2023-05-22T09:39:04.617Z,7.07
2023-05-22T09:42:09.293Z,7.70
2023-05-22T09:45:12.429Z,7.32
2023-05-22T09:48:18.479Z,7.70
2023-05-22T09:51:26.809Z,7.28
2023-05-22T09:54:30.794Z,8.00
2023-05-22T09:57:41.652Z,7.13
2023-05-22T10:00:45.108Z,7.07
2023-05-22T10:03:49.310Z,8.02
2023-05-22T10:06:53.626Z,7.40
2023-05-22T10:13:05.088Z,7.30
2023-05-22T10:16:07.810Z,7.32
2023-05-22T10:19:11.154Z,7.22
2023-05-22T10:22:20.806Z,7.65
2023-05-22T10:25:23.437Z,6.95
2023-05-22T10:28:32.967Z,7.75
2023-05-22T10:31:42.320Z,7.13
2023-05-22T10:34:59.405Z,7.18
2023-05-22T10:38:23.013Z,8.93
2023-05-22T10:41:26.477Z,7.78
2023-05-22T10:44:29.688Z,7.75
2023-05-22T10:47:33.424Z,8.25
2023-05-22T10:50:36.130Z,8.43
2023-05-22T10:53:41.025Z,7.68
2023-05-22T10:56:43.055Z,8.05
2023-05-22T10:59:47.821Z,6.28
2023-05-22T11:02:51.127Z,6.35
2023-05-22T11:05:57.839Z,6.57
2023-05-22T11:09:00.038Z,7.10
2023-05-22T11:12:20.520Z,7.05
2023-05-22T11:15:31.464Z,6.47
2023-05-22T11:18:33.469Z,7.43
2023-05-22T11:21:36.757Z,6.60
2023-05-22T11:24:40.461Z,6.07
2023-05-22T11:27:42.610Z,7.53
2023-05-22T11:30:45.969Z,7.13
2023-05-22T11:33:48.387Z,6.82
2023-05-22T11:36:52.225Z,6.15
2023-05-22T11:39:57.069Z,6.60
2023-05-22T11:42:58.886Z,6.00
2023-05-22T11:46:07.309Z,6.80
2023-05-22T11:49:13.470Z,6.63
2023-05-22T11:52:17.416Z,7.40
2023-05-22T11:58:22.781Z,6.10
2023-05-22T12:01:26.595Z,6.05
2023-05-22T12:04:28.491Z,6.18
2023-05-22T12:07:31.033Z,6.13
2023-05-22T12:10:32.888Z,5.80
2023-05-22T12:13:35.196Z,5.75
2023-05-22T12:16:38.559Z,5.50
2023-05-22T12:19:41.662Z,5.57
2023-05-22T12:22:44.080Z,5.43
2023-05-22T12:25:46.190Z,5.63
2023-05-22T12:28:47.901Z,5.68
2023-05-22T12:31:51.592Z,5.53
2023-05-22T12:34:58.238Z,5.30
2023-05-22T12:38:00.584Z,5.10
2023-05-22T12:41:05.881Z,5.47
2023-05-22T12:44:07.726Z,4.93
2023-05-22T12:47:11.103Z,4.50
2023-05-22T12:50:13.017Z,4.78
2023-05-22T12:53:15.145Z,5.03
2023-05-22T12:56:17.091Z,5.15
2023-05-22T12:59:20.757Z,4.82
2023-05-22T13:05:26.044Z,4.75
2023-05-22T13:08:28.646Z,4.45
2023-05-22T13:11:31.540Z,4.85
2023-05-22T13:14:33.576Z,4.43
2023-05-22T13:17:36.845Z,4.03
2023-05-22T13:20:39.148Z,4.45
2023-05-22T13:23:40.994Z,4.10
2023-05-22T13:26:42.709Z,4.13
2023-05-22T13:29:44.568Z,4.43
2023-05-22T13:32:50.856Z,3.72
2023-05-22T13:35:53.187Z,4.28
2023-05-22T13:38:55.074Z,3.78
2023-05-22T13:41:57.576Z,3.70
2023-05-22T13:44:59.641Z,3.63
2023-05-22T13:48:04.242Z,3.88
2023-05-22T13:51:06.387Z,3.83
2023-05-22T13:54:08.224Z,4.00
2023-05-22T13:57:10.992Z,4.32
2023-05-22T14:00:14.080Z,3.60
2023-05-22T14:03:18.238Z,3.25
2023-05-22T14:09:27.050Z,3.63
2023-05-22T14:15:31.169Z,3.42
2023-05-22T14:18:34.436Z,3.42
2023-05-22T14:21:36.296Z,3.90
2023-05-22T14:24:39.442Z,4.07
2023-05-22T14:27:41.663Z,3.35
2023-05-22T14:30:44.071Z,3.13
2023-05-22T14:33:47.250Z,3.72
2023-05-22T14:36:49.042Z,3.33
2023-05-22T14:39:51.074Z,3.20
2023-05-22T14:42:54.378Z,3.10
2023-05-22T14:45:58.014Z,3.50
2023-05-22T14:52:08.556Z,3.92
2023-05-22T14:55:10.336Z,3.40
2023-05-22T14:58:12.944Z,3.25
2023-05-22T15:01:15.082Z,2.95
2023-05-22T15:04:18.661Z,2.60
2023-05-22T15:07:24.363Z,3.20
2023-05-22T15:10:28.783Z,3.15
2023-05-22T15:13:31.006Z,3.40
2023-05-22T15:16:32.933Z,3.53
2023-05-22T15:19:36.712Z,3.38
2023-05-22T15:22:39.291Z,4.45
2023-05-22T15:25:42.886Z,4.18
2023-05-22T15:28:44.708Z,3.92
2023-05-22T15:31:48.694Z,3.83
2023-05-22T15:34:52.462Z,4.55
2023-05-22T15:37:54.242Z,4.75
2023-05-22T15:40:55.988Z,5.50
2023-05-22T15:43:58.018Z,4.03
2023-05-22T15:46:59.903Z,4.18
2023-05-22T15:50:06.924Z,3.90
2023-05-22T15:53:08.894Z,4.10
2023-05-22T15:56:10.868Z,4.50
2023-05-22T15:59:12.949Z,4.00
2023-05-22T16:02:14.970Z,3.88
2023-05-22T16:05:18.351Z,3.70
2023-05-22T16:08:23.783Z,3.60
2023-05-22T16:11:25.987Z,3.30
2023-05-22T16:14:27.924Z,3.75
2023-05-22T16:17:29.780Z,4.50
2023-05-22T16:20:33.359Z,4.03
2023-05-22T16:23:35.108Z,3.70
2023-05-22T16:26:39.779Z,3.80
2023-05-22T16:29:41.871Z,4.00
2023-05-22T16:32:45.432Z,3.55
2023-05-22T16:35:48.812Z,3.65
2023-05-22T16:38:50.772Z,4.00
2023-05-22T16:41:53.978Z,4.10
2023-05-22T16:44:56.460Z,4.85
2023-05-22T16:47:58.707Z,4.25
2023-05-22T16:51:02.045Z,4.32
2023-05-22T16:54:04.651Z,3.90
2023-05-22T16:57:07.630Z,4.13
2023-05-22T17:00:10.974Z,4.40
2023-05-22T17:03:14.194Z,6.22
2023-05-22T17:06:20.869Z,4.97
2023-05-22T17:09:24.499Z,4.88
2023-05-22T17:12:26.391Z,6.10
2023-05-22T17:15:29.550Z,6.05
2023-05-22T17:18:31.663Z,5.88
2023-05-22T17:21:35.047Z,6.07
2023-05-22T17:24:36.799Z,5.93
2023-05-22T17:27:38.645Z,6.00
2023-05-22T17:30:43.306Z,5.80
2023-05-22T17:33:45.901Z,5.72
2023-05-22T17:36:51.170Z,5.68
2023-05-22T17:39:52.994Z,5.97
2023-05-22T17:42:58.338Z,5.45
2023-05-22T17:46:00.710Z,5.28
2023-05-22T17:49:02.815Z,5.18
2023-05-22T17:52:08.481Z,5.72
2023-05-22T17:55:10.610Z,5.70
2023-05-22T17:58:14.799Z,5.75
2023-05-22T18:01:18.649Z,5.65
2023-05-22T18:04:20.968Z,5.68
2023-05-22T18:07:24.183Z,4.78
2023-05-22T18:10:27.432Z,5.68
2023-05-22T18:13:30.355Z,5.82
2023-05-22T18:16:33.080Z,5.28
2023-05-22T18:19:34.994Z,5.47
2023-05-22T18:22:39.819Z,5.00
2023-05-22T18:25:44.037Z,4.82
2023-05-22T18:28:48.462Z,6.10
2023-05-22T18:31:51.650Z,4.85
2023-05-22T18:34:54.154Z,4.80
2023-05-22T18:37:59.670Z,4.93
2023-05-22T18:41:01.631Z,4.57
2023-05-22T18:44:04.106Z,4.40
2023-05-22T18:47:06.287Z,4.80
2023-05-22T18:50:08.634Z,4.88
2023-05-22T18:53:12.083Z,5.07
2023-05-22T18:56:13.930Z,5.28
2023-05-22T18:59:15.981Z,5.03
2023-05-22T19:02:23.660Z,4.82
2023-05-22T19:05:26.195Z,4.97
2023-05-22T19:08:31.218Z,5.05
2023-05-22T19:11:34.573Z,4.63
2023-05-22T19:14:36.397Z,4.75
2023-05-22T19:17:38.370Z,4.40
2023-05-22T19:20:40.699Z,4.60
2023-05-22T19:23:44.810Z,4.45
2023-05-22T19:26:46.727Z,4.75
2023-05-22T19:29:48.581Z,4.55
2023-05-22T19:32:51.151Z,4.57
2023-05-22T19:35:53.414Z,4.75
2023-05-22T19:38:56.639Z,4.78
2023-05-22T19:41:59.098Z,4.90
2023-05-22T19:45:02.552Z,4.72
2023-05-22T19:48:04.382Z,4.53
2023-05-22T19:51:08.882Z,4.20
2023-05-22T19:54:12.401Z,4.22
2023-05-22T19:57:14.554Z,3.85
2023-05-22T20:00:17.017Z,4.03
2023-05-22T20:03:20.333Z,4.47
2023-05-22T20:06:22.792Z,4.20
2023-05-22T20:09:26.969Z,4.05
2023-05-22T20:12:30.114Z,3.45
2023-05-22T20:15:33.015Z,4.13
2023-05-22T20:18:34.900Z,4.00
2023-05-22T20:21:36.928Z,4.22
2023-05-22T20:24:40.155Z,4.38
2023-05-22T20:27:41.998Z,4.03
2023-05-22T20:30:44.241Z,4.25
2023-05-22T20:33:46.044Z,4.30
2023-05-22T20:36:48.376Z,4.13
2023-05-22T20:39:52.546Z,4.30
2023-05-22T20:42:54.397Z,4.30
2023-05-22T20:45:56.543Z,3.88
2023-05-22T20:48:59.982Z,4.15
2023-05-22T20:52:02.789Z,4.43
2023-05-22T20:55:07.312Z,4.75
2023-05-22T20:58:09.378Z,4.47
2023-05-22T21:01:11.556Z,4.35
2023-05-22T21:04:13.742Z,4.78
2023-05-22T21:07:15.831Z,4.25
2023-05-22T21:10:19.109Z,4.88
2023-05-22T21:13:21.370Z,4.53
2023-05-22T21:16:24.253Z,4.13
2023-05-22T21:19:26.080Z,4.70
2023-05-22T21:22:27.839Z,4.38
2023-05-22T21:25:30.987Z,4.20
2023-05-22T21:28:32.986Z,4.82
2023-05-22T21:31:35.752Z,4.45
2023-05-22T21:34:37.746Z,4.50
2023-05-22T21:37:41.246Z,4.63
2023-05-22T21:40:45.855Z,4.68
2023-05-22T21:43:47.837Z,4.78
2023-05-22T21:46:50.081Z,4.85
2023-05-22T21:49:52.576Z,4.45
2023-05-22T21:52:55.474Z,4.65
2023-05-22T21:55:58.618Z,4.72
2023-05-22T21:59:00.598Z,4.60
2023-05-22T22:02:02.788Z,4.53
2023-05-22T22:05:05.852Z,4.07
2023-05-22T22:08:07.751Z,4.03
2023-05-22T22:11:10.925Z,4.85
2023-05-22T22:14:13.814Z,3.95
2023-05-22T22:17:16.876Z,4.90
2023-05-22T22:20:24.782Z,4.28
2023-05-22T22:23:32.720Z,4.28
2023-05-22T22:26:38.662Z,4.82
2023-05-22T22:29:42.918Z,5.30
2023-05-22T22:32:45.818Z,4.90
2023-05-22T22:35:49.479Z,5.05
2023-05-22T22:38:51.413Z,5.43
2023-05-22T22:41:54.899Z,4.68
2023-05-22T22:44:56.902Z,4.70
2023-05-22T22:48:01.150Z,5.20
2023-05-22T22:51:04.918Z,4.97
2023-05-22T22:54:06.858Z,5.38
2023-05-22T22:57:10.628Z,7.25
2023-05-22T23:00:13.966Z,9.05
2023-05-22T23:03:15.719Z,8.57
2023-05-22T23:06:18.322Z,7.65
2023-05-22T23:09:20.377Z,7.60
2023-05-22T23:12:23.640Z,7.85
2023-05-22T23:15:25.879Z,7.55
2023-05-22T23:18:27.917Z,7.82
2023-05-22T23:21:29.718Z,7.97
2023-05-22T23:24:32.097Z,6.90
2023-05-22T23:27:36.453Z,7.40
2023-05-22T23:30:38.321Z,7.30
2023-05-22T23:33:40.356Z,7.65
2023-05-22T23:36:43.182Z,7.57
2023-05-22T23:39:45.002Z,7.75
2023-05-22T23:42:48.361Z,7.63
2023-05-22T23:45:50.628Z,7.97
2023-05-22T23:48:52.488Z,8.88
2023-05-22T23:55:17.910Z,8.70
2023-05-22T23:58:22.729Z,8.07
